Terminal Aerodrome Forecast
Issued by NWS

Home | Current Version | Previous Version | Text Only | Print | Product List | Glossary On
Versions: 1 2 3 4 5 6 7 8 9 10 11 12 13 14
283
FTUS46 KMTR 201124
TAFSNS
TAF
KSNS 201124Z 2012/2112 14030G40KT 5SM +RA BKN020 OVC030
     FM201600 26015G24KT 6SM -SHRA BKN020 OVC030
     FM202100 29017G28KT 6SM SHRA SCT020 OVC050
     FM210300 30015G22KT P6SM VCSH OVC025=

USA.gov is the U.S. government's official web portal to all federal, state and local government web resources and services.